createdAt,value
2023-03-12T09:11:36.864Z,6.18
2023-03-12T09:14:42.360Z,3.80
2023-03-12T09:16:50.106Z,3.63
2023-03-12T09:19:16.606Z,4.59
2023-03-12T09:21:43.261Z,4.01
2023-03-12T09:24:10.112Z,3.72
2023-03-12T09:26:36.509Z,3.20
2023-03-12T09:29:02.879Z,3.88
2023-03-12T09:31:29.236Z,4.48
2023-03-12T09:33:55.642Z,3.50
2023-03-12T09:36:22.006Z,3.95
2023-03-12T09:38:48.423Z,4.04
2023-03-12T09:41:25.175Z,4.19
2023-03-12T09:44:14.217Z,4.02
2023-03-12T09:47:03.661Z,4.61
2023-03-12T09:49:46.619Z,4.33
2023-03-12T09:52:24.481Z,4.62
2023-03-12T09:55:07.050Z,4.83
2023-03-12T09:57:34.238Z,5.44
2023-03-12T10:00:00.993Z,5.25
2023-03-12T10:02:51.483Z,5.54
2023-03-12T10:05:26.237Z,5.83
2023-03-12T10:08:07.623Z,5.27
2023-03-12T10:11:05.259Z,5.96
2023-03-12T10:13:37.568Z,6.42
2023-03-12T10:16:12.780Z,6.35
2023-03-12T10:19:03.837Z,5.54
2023-03-12T10:21:40.601Z,6.25
2023-03-12T10:24:28.801Z,6.13
2023-03-12T10:26:57.772Z,6.13
2023-03-12T10:29:30.706Z,5.92
2023-03-12T10:32:08.323Z,6.55
2023-03-12T10:34:41.108Z,6.34
2023-03-12T10:37:26.640Z,6.38
2023-03-12T10:39:55.451Z,6.21
2023-03-12T10:42:24.835Z,6.10
2023-03-12T10:44:53.832Z,6.67
2023-03-12T10:47:35.417Z,6.01
2023-03-12T10:50:19.216Z,6.91
2023-03-12T10:52:47.659Z,5.72
2023-03-12T10:55:22.902Z,6.70
2023-03-12T10:57:50.241Z,6.88
2023-03-12T11:00:22.385Z,7.11
2023-03-12T11:02:56.189Z,7.24
2023-03-12T11:05:26.080Z,6.82
2023-03-12T11:07:52.911Z,6.10
2023-03-12T11:10:25.575Z,5.98
2023-03-12T11:13:01.583Z,6.81
2023-03-12T11:15:36.884Z,6.33
2023-03-12T11:18:24.049Z,6.95
2023-03-12T11:20:56.472Z,7.21
2023-03-12T11:23:29.563Z,7.09
2023-03-12T11:26:03.720Z,7.19
2023-03-12T11:28:39.307Z,7.03
2023-03-12T11:31:11.629Z,7.38
2023-03-12T11:33:38.114Z,7.01
2023-03-12T11:36:34.348Z,6.75
2023-03-12T11:39:08.852Z,6.78
2023-03-12T11:41:56.088Z,6.08
2023-03-12T11:44:42.785Z,6.68
2023-03-12T11:47:32.402Z,6.96
2023-03-12T11:50:39.160Z,7.50
2023-03-12T11:53:49.973Z,7.50
2023-03-12T11:56:27.514Z,7.44
2023-03-12T11:59:09.301Z,6.39
2023-03-12T12:01:51.205Z,6.65
2023-03-12T12:04:45.910Z,7.62
2023-03-12T12:07:34.896Z,8.16
2023-03-12T12:10:27.241Z,8.07
2023-03-12T12:13:18.197Z,7.77
2023-03-12T12:16:09.678Z,7.69
2023-03-12T12:19:05.707Z,7.40
2023-03-12T12:21:44.580Z,7.60
2023-03-12T12:24:29.453Z,7.88
2023-03-12T12:27:18.652Z,7.65
2023-03-12T12:30:05.570Z,7.97
2023-03-12T12:32:38.261Z,8.05
2023-03-12T12:35:24.927Z,7.88
2023-03-12T12:38:01.670Z,7.87
2023-03-12T12:40:37.788Z,7.80
2023-03-12T12:43:15.603Z,8.10
2023-03-12T12:45:42.438Z,8.28
2023-03-12T12:48:34.841Z,7.79
2023-03-12T12:51:04.009Z,7.81
2023-03-12T12:53:48.363Z,7.76
2023-03-12T12:56:44.967Z,7.47
2023-03-12T12:59:31.564Z,7.42
2023-03-12T13:01:59.607Z,7.28
2023-03-12T13:04:31.962Z,7.23
2023-03-12T13:07:25.832Z,7.68
2023-03-12T13:09:56.161Z,7.40
2023-03-12T13:12:30.917Z,7.19
2023-03-12T13:14:58.450Z,7.34
2023-03-12T13:17:29.315Z,7.61
2023-03-12T13:20:01.989Z,6.81
2023-03-12T13:22:37.644Z,7.12
2023-03-12T13:25:19.977Z,7.73
2023-03-12T13:27:46.528Z,7.58
2023-03-12T13:30:34.409Z,7.50
2023-03-12T13:33:03.633Z,7.53
2023-03-12T13:35:39.650Z,7.42
2023-03-12T13:38:12.488Z,7.44
2023-03-12T13:40:54.464Z,7.01
2023-03-12T13:43:33.258Z,7.13
2023-03-12T13:46:00.582Z,7.05
2023-03-12T13:48:27.390Z,7.43
2023-03-12T13:50:56.985Z,7.36
2023-03-12T13:53:33.625Z,7.20
2023-03-12T13:56:11.362Z,7.15
2023-03-12T13:58:47.977Z,6.91
2023-03-12T14:01:19.045Z,7.18
2023-03-12T14:03:51.738Z,6.92
2023-03-12T14:06:21.155Z,7.07
2023-03-12T14:08:59.950Z,7.21
2023-03-12T14:11:34.235Z,6.96
2023-03-12T14:14:31.428Z,6.84
2023-03-12T14:17:00.325Z,6.77
2023-03-12T14:19:29.768Z,6.77
2023-03-12T14:21:59.890Z,6.38
2023-03-12T14:24:32.865Z,6.24
2023-03-12T14:27:00.925Z,6.33
2023-03-12T14:29:48.510Z,6.47
2023-03-12T14:32:20.517Z,6.57
2023-03-12T14:34:53.606Z,6.58
2023-03-12T14:37:43.334Z,6.37
2023-03-12T14:40:38.264Z,6.15
2023-03-12T14:43:23.904Z,5.75
2023-03-12T14:45:52.202Z,5.91
2023-03-12T14:48:24.222Z,5.87
2023-03-12T14:50:50.840Z,6.15
2023-03-12T14:53:24.436Z,5.79
2023-03-12T14:56:14.868Z,5.78
2023-03-12T14:58:47.335Z,5.80
2023-03-12T15:01:18.151Z,5.97
2023-03-12T15:03:51.075Z,5.97
2023-03-12T15:06:30.314Z,5.92
2023-03-12T15:08:57.882Z,6.08
2023-03-12T15:11:27.381Z,5.85
2023-03-12T15:13:55.861Z,6.03
2023-03-12T15:16:23.079Z,5.98
2023-03-12T15:18:50.398Z,5.90
2023-03-12T15:21:16.995Z,5.99
2023-03-12T15:23:46.724Z,6.03
2023-03-12T15:26:19.212Z,5.68
2023-03-12T15:29:26.113Z,5.80
2023-03-12T15:32:00.851Z,5.50
2023-03-12T15:34:37.133Z,5.51
2023-03-12T15:37:20.630Z,5.63
2023-03-12T15:39:52.629Z,5.13
2023-03-12T15:42:24.870Z,5.28
2023-03-12T15:45:02.795Z,5.52
2023-03-12T15:47:32.004Z,5.60
2023-03-12T15:50:03.217Z,5.30
2023-03-12T15:52:33.095Z,5.29
2023-03-12T15:55:05.279Z,5.13
2023-03-12T15:57:34.131Z,4.98
2023-03-12T16:00:16.632Z,5.48
2023-03-12T16:02:58.682Z,5.45
2023-03-12T16:05:37.606Z,5.09
2023-03-12T16:08:28.778Z,5.00
2023-03-12T16:10:56.324Z,5.36
2023-03-12T16:13:28.362Z,4.75
2023-03-12T16:15:55.046Z,5.01
2023-03-12T16:18:22.945Z,4.92
2023-03-12T16:20:51.497Z,5.01
2023-03-12T16:23:18.917Z,4.80
2023-03-12T16:25:47.988Z,4.93
2023-03-12T16:28:16.909Z,4.92
2023-03-12T16:30:43.424Z,4.87
2023-03-12T16:33:15.260Z,4.87
2023-03-12T16:35:41.728Z,4.85
2023-03-12T16:38:08.475Z,4.81
2023-03-12T16:40:37.801Z,4.87
2023-03-12T16:43:07.045Z,4.70
2023-03-12T16:45:37.322Z,4.68
2023-03-12T16:48:06.104Z,4.70
2023-03-12T16:50:32.641Z,4.61
2023-03-12T16:52:59.671Z,4.77
2023-03-12T16:55:28.559Z,4.47
2023-03-12T16:58:00.742Z,4.63
2023-03-12T17:00:30.229Z,4.54
2023-03-12T17:02:59.968Z,4.67
2023-03-12T17:05:28.691Z,4.84
2023-03-12T17:07:56.054Z,5.01
2023-03-12T17:10:24.082Z,5.03
2023-03-12T17:12:50.780Z,4.83
2023-03-12T17:15:21.588Z,4.87
2023-03-12T17:17:48.631Z,4.88
2023-03-12T17:20:17.049Z,4.76
2023-03-12T17:22:43.892Z,4.87
2023-03-12T17:25:20.054Z,4.77
2023-03-12T17:27:46.413Z,4.86
2023-03-12T17:30:13.173Z,4.82
2023-03-12T17:32:39.623Z,4.94
2023-03-12T17:35:06.786Z,5.09
2023-03-12T17:37:34.203Z,4.84
2023-03-12T17:40:11.032Z,5.06
2023-03-12T17:42:38.661Z,4.55
2023-03-12T17:45:07.859Z,4.61
2023-03-12T17:47:34.999Z,4.73
2023-03-12T17:50:01.395Z,4.35
2023-03-12T17:52:27.759Z,4.49
2023-03-12T17:54:54.217Z,4.58
2023-03-12T17:57:20.572Z,4.23
2023-03-12T17:59:47.030Z,4.40
2023-03-12T18:02:14.323Z,4.33
2023-03-12T18:04:40.765Z,4.13
2023-03-12T18:07:07.166Z,4.27
2023-03-12T18:09:33.510Z,4.33
2023-03-12T18:11:59.898Z,4.53
2023-03-12T18:14:26.277Z,4.43
2023-03-12T18:16:52.668Z,4.65
2023-03-12T18:19:19.264Z,4.42
2023-03-12T18:21:45.633Z,4.39
2023-03-12T18:24:14.499Z,4.11
2023-03-12T18:26:41.333Z,4.17
2023-03-12T18:29:07.699Z,4.47
2023-03-12T18:31:34.457Z,4.70
2023-03-12T18:34:00.850Z,4.36
2023-03-12T18:36:27.274Z,4.26
2023-03-12T18:38:53.624Z,4.26
2023-03-12T18:41:19.989Z,4.21
2023-03-12T18:43:46.363Z,4.31
2023-03-12T18:46:13.039Z,4.44
2023-03-12T18:48:40.879Z,4.38
2023-03-12T18:51:08.137Z,4.49
2023-03-12T18:53:34.484Z,4.17
2023-03-12T18:56:00.888Z,4.54
2023-03-12T18:58:27.926Z,4.57
2023-03-12T19:00:55.673Z,4.19
2023-03-12T19:03:23.047Z,4.27
2023-03-12T19:05:59.781Z,4.33
2023-03-12T19:08:26.142Z,4.37
2023-03-12T19:10:52.527Z,4.40
2023-03-12T19:13:18.873Z,4.20
2023-03-12T19:15:46.042Z,4.51
2023-03-12T19:18:12.410Z,4.46
2023-03-12T19:20:39.046Z,4.19
2023-03-12T19:23:05.500Z,4.47
2023-03-12T19:25:32.075Z,4.64
2023-03-12T19:27:58.507Z,4.59
2023-03-12T19:30:30.384Z,4.58
2023-03-12T19:32:56.838Z,4.47
2023-03-12T19:35:23.274Z,4.71
2023-03-12T19:37:49.669Z,4.61
2023-03-12T19:40:16.341Z,4.58
2023-03-12T19:42:42.768Z,4.66
2023-03-12T19:45:10.452Z,4.74
2023-03-12T19:47:36.812Z,4.59
2023-03-12T19:50:03.359Z,4.68
2023-03-12T19:52:30.013Z,4.59
2023-03-12T19:55:04.276Z,4.95
2023-03-12T19:57:31.425Z,4.71
2023-03-12T19:59:57.807Z,4.64
2023-03-12T20:02:24.357Z,4.78
2023-03-12T20:04:50.803Z,4.98
2023-03-12T20:07:18.443Z,4.69
2023-03-12T20:09:44.828Z,4.62
2023-03-12T20:12:11.366Z,5.27
2023-03-12T20:14:37.750Z,5.36
2023-03-12T20:17:04.127Z,5.18
2023-03-12T20:19:30.497Z,5.08
2023-03-12T20:21:57.271Z,5.01
2023-03-12T20:24:23.958Z,4.82
2023-03-12T20:26:50.340Z,4.91
2023-03-12T20:29:16.709Z,5.16
2023-03-12T20:31:43.347Z,5.16
2023-03-12T20:34:09.925Z,5.10
2023-03-12T20:36:36.320Z,5.37
2023-03-12T20:39:02.772Z,5.49
2023-03-12T20:41:29.203Z,5.54
2023-03-12T20:43:57.433Z,5.50
2023-03-12T20:46:24.247Z,5.66
2023-03-12T20:48:51.322Z,5.24
2023-03-12T20:51:18.419Z,5.78
2023-03-12T20:53:56.262Z,5.98
2023-03-12T20:56:22.772Z,5.92
2023-03-12T20:58:49.750Z,5.84
2023-03-12T21:01:24.354Z,5.92
2023-03-12T21:04:10.973Z,5.68
2023-03-12T21:06:37.364Z,6.03
2023-03-12T21:09:04.388Z,5.58
2023-03-12T21:11:31.355Z,5.67
2023-03-12T21:14:00.212Z,5.47
2023-03-12T21:16:26.693Z,6.00
2023-03-12T21:18:56.652Z,6.16
2023-03-12T21:21:23.215Z,5.80
2023-03-12T21:23:49.667Z,6.09
2023-03-12T21:26:18.206Z,6.05
2023-03-12T21:28:44.973Z,5.84
2023-03-12T21:31:13.582Z,5.90
2023-03-12T21:33:40.134Z,6.46
2023-03-12T21:36:08.654Z,6.12
2023-03-12T21:38:35.979Z,5.82
2023-03-12T21:41:10.553Z,6.17
2023-03-12T21:43:36.954Z,6.08
2023-03-12T21:46:05.352Z,5.96
2023-03-12T21:48:31.912Z,6.14
2023-03-12T21:51:05.974Z,6.05
2023-03-12T21:53:32.521Z,6.22
2023-03-12T21:56:00.720Z,6.03
2023-03-12T21:58:29.054Z,5.97
2023-03-12T22:01:13.103Z,6.02
2023-03-12T22:03:40.931Z,6.29
2023-03-12T22:06:08.136Z,6.11
2023-03-12T22:08:34.641Z,6.25
2023-03-12T22:11:01.142Z,6.35
2023-03-12T22:13:27.643Z,6.28
2023-03-12T22:15:59.127Z,6.25
2023-03-12T22:18:26.101Z,6.28
2023-03-12T22:20:53.985Z,6.86
2023-03-12T22:23:21.111Z,6.55
2023-03-12T22:25:47.938Z,6.41
2023-03-12T22:28:15.332Z,6.57
2023-03-12T22:30:42.295Z,6.27
2023-03-12T22:33:09.090Z,6.50
2023-03-12T22:35:35.542Z,6.48
2023-03-12T22:38:01.914Z,6.72
2023-03-12T22:40:28.429Z,6.86
2023-03-12T22:42:57.325Z,7.08
2023-03-12T22:45:23.672Z,6.93
2023-03-12T22:47:50.061Z,6.78
2023-03-12T22:50:16.567Z,6.79
2023-03-12T22:52:42.926Z,6.69
2023-03-12T22:55:09.402Z,6.94
2023-03-12T22:57:37.029Z,7.11
2023-03-12T23:00:26.520Z,7.11
2023-03-12T23:02:52.873Z,6.85
2023-03-12T23:05:19.288Z,6.80
2023-03-12T23:07:45.679Z,6.87
2023-03-12T23:10:12.058Z,6.74
2023-03-12T23:12:38.432Z,6.97
2023-03-12T23:15:06.003Z,6.89
2023-03-12T23:17:33.758Z,7.05
2023-03-12T23:20:04.287Z,6.84
2023-03-12T23:22:30.830Z,7.01
2023-03-12T23:24:57.187Z,7.07
2023-03-12T23:27:23.550Z,6.97
2023-03-12T23:29:49.881Z,7.25
2023-03-12T23:32:16.934Z,7.04
2023-03-12T23:34:43.355Z,7.08
2023-03-12T23:37:09.927Z,7.07
2023-03-12T23:39:48.452Z,7.03
2023-03-12T23:42:20.613Z,7.11
2023-03-12T23:44:47.291Z,7.17
2023-03-12T23:47:13.673Z,7.28
2023-03-12T23:49:40.042Z,7.45
2023-03-12T23:52:06.485Z,7.33
2023-03-12T23:54:32.832Z,7.35
2023-03-12T23:56:59.238Z,7.26
2023-03-12T23:59:25.634Z,7.13
